Scaly Mountain, NC (28775)

11:29 PM EDT on August 29, 2016 (GMT -0400)
Pines Road | | Change Station

Elev 3595 ft 35.01 °N, 83.31 °W | Updated 6 minutes ago

Clear
Clear
67.5 °F
Feels Like 67.5 °F
N
0.6
Wind Variable Wind from NW
Gusts 1.9 mph

Today
High -- | Low -- °F
--% Chance of Precip.
Yesterday
High -- | Low -- °F
Precip. -- in
Pressure 30.20 in
Visibility 2.0 miles
Clouds Clear
Dew Point 62 °F
Humidity 82%
Rainfall 0.00 in
Snow Depth Not available.
7:04 AM 8:03 PM
Waning Crescent, 5% visible
METAR K1A5 300320Z AUTO 00000KT 2SM BR CLR 19/18 A3020 RMK AO2 T01900182
Pressure 30.20 in
Visibility 2.0 miles
Clouds Clear
Dew Point 62 °F
Humidity 82%
Rainfall 0.00 in
Snow Depth Not available.
7:04 AM 8:03 PM
Waning Crescent, 5% visible
METAR K1A5 300320Z AUTO 00000KT 2SM BR CLR 19/18 A3020 RMK AO2 T01900182
Tropical Depression Nine was centered about 170 miles west-southwest of Key West, Florida, as of late Monday morning. The depression may struggle a bit in the southern Gulf of Mexico before finally making a Gulf Coast landfall later this week with soaking rain and gusty winds.

This latest system was designated a tropical depression Sunday after a Hurricane Hunter reconnaissance mission finally found a sufficiently organized low-pressure center with collocated shower and thunderstorm activity.

10-Day Weather Forecast

Almanac

Astronomy

Aug. 29, 2016 Rise Set
Actual Time
Civil Twilight
Nautical Twilight
Astronomical Twilight
Moon
Length of Visible Light
Length of Day
Tomorrow will be .
, % of the Moon is Illuminated

Today's Extremes

State Highs State Lows

Community

WunderPhotos

Upload Photos

1,935,777 photos uploaded!

WunderBlog® & News

Nearby

Air Quality

  Air Quality AQ Index Pollutant
Not available.

Snow Depth

Station Depth Elevation

Earthquake Activity

City Distance Mag. Time & Date
Minimum magnitude displayed is 2.5.

Coastal Water Temperatures

Place Temperature

Stations

Nearby Weather Stations

Station Location Temp. Windchill Dew Point Humidity Wind Precip. Elev Updated Type
                   

Watches & Warnings

There are currently no watches in effect.